sensor_id;sensor_type;location;lat;lon;timestamp;P1;durP1;ratioP1;P2;durP2;ratioP2
77701;SDS011;66868;42.708;23.404;2023-06-22T00:01:47;9.27;;;8.40;;
77701;SDS011;66868;42.708;23.404;2023-06-22T00:04:13;9.50;;;8.50;;
77701;SDS011;66868;42.708;23.404;2023-06-22T00:06:38;12.07;;;7.50;;
77701;SDS011;66868;42.708;23.404;2023-06-22T00:09:04;13.20;;;8.15;;
77701;SDS011;66868;42.708;23.404;2023-06-22T00:11:29;8.65;;;8.02;;
77701;SDS011;66868;42.708;23.404;2023-06-22T00:13:57;9.65;;;7.60;;
77701;SDS011;66868;42.708;23.404;2023-06-22T00:16:23;8.18;;;7.43;;
77701;SDS011;66868;42.708;23.404;2023-06-22T00:18:48;8.52;;;7.82;;
77701;SDS011;66868;42.708;23.404;2023-06-22T00:21:14;8.95;;;8.05;;
77701;SDS011;66868;42.708;23.404;2023-06-22T00:23:39;8.75;;;7.93;;
77701;SDS011;66868;42.708;23.404;2023-06-22T00:26:06;8.43;;;7.57;;
77701;SDS011;66868;42.708;23.404;2023-06-22T00:28:31;9.75;;;8.10;;
77701;SDS011;66868;42.708;23.404;2023-06-22T00:30:57;7.75;;;7.25;;
77701;SDS011;66868;42.708;23.404;2023-06-22T00:33:22;8.20;;;7.40;;
77701;SDS011;66868;42.708;23.404;2023-06-22T00:35:48;8.30;;;7.25;;
77701;SDS011;66868;42.708;23.404;2023-06-22T00:38:13;8.70;;;7.68;;
77701;SDS011;66868;42.708;23.404;2023-06-22T00:40:38;11.70;;;8.15;;
77701;SDS011;66868;42.708;23.404;2023-06-22T00:43:04;8.65;;;8.05;;
77701;SDS011;66868;42.708;23.404;2023-06-22T00:45:30;9.70;;;8.68;;
77701;SDS011;66868;42.708;23.404;2023-06-22T00:47:56;8.38;;;7.68;;
77701;SDS011;66868;42.708;23.404;2023-06-22T00:50:23;8.52;;;7.80;;
77701;SDS011;66868;42.708;23.404;2023-06-22T00:52:51;10.68;;;8.20;;
77701;SDS011;66868;42.708;23.404;2023-06-22T00:55:18;9.40;;;8.20;;
77701;SDS011;66868;42.708;23.404;2023-06-22T00:57:45;9.13;;;8.23;;
77701;SDS011;66868;42.708;23.404;2023-06-22T01:00:12;9.15;;;8.40;;
77701;SDS011;66868;42.708;23.404;2023-06-22T01:02:40;10.70;;;8.98;;
77701;SDS011;66868;42.708;23.404;2023-06-22T01:05:06;12.88;;;8.50;;
77701;SDS011;66868;42.708;23.404;2023-06-22T01:07:35;9.98;;;8.90;;
77701;SDS011;66868;42.708;23.404;2023-06-22T01:16:00;9.23;;;8.25;;
77701;SDS011;66868;42.708;23.404;2023-06-22T01:18:28;10.27;;;9.25;;
77701;SDS011;66868;42.708;23.404;2023-06-22T01:20:58;10.10;;;8.95;;
77701;SDS011;66868;42.708;23.404;2023-06-22T01:28:45;9.05;;;8.25;;
77701;SDS011;66868;42.708;23.404;2023-06-22T01:31:16;9.93;;;9.00;;
77701;SDS011;66868;42.708;23.404;2023-06-22T01:33:45;9.32;;;8.05;;
77701;SDS011;66868;42.708;23.404;2023-06-22T01:36:15;11.95;;;9.07;;
77701;SDS011;66868;42.708;23.404;2023-06-22T01:38:42;9.25;;;8.35;;
77701;SDS011;66868;42.708;23.404;2023-06-22T01:41:08;10.90;;;8.50;;
77701;SDS011;66868;42.708;23.404;2023-06-22T01:43:34;11.13;;;9.23;;
77701;SDS011;66868;42.708;23.404;2023-06-22T01:46:01;10.07;;;9.07;;
77701;SDS011;66868;42.708;23.404;2023-06-22T01:48:28;9.93;;;8.93;;
77701;SDS011;66868;42.708;23.404;2023-06-22T01:50:54;10.05;;;8.98;;
77701;SDS011;66868;42.708;23.404;2023-06-22T01:53:23;11.75;;;9.68;;
77701;SDS011;66868;42.708;23.404;2023-06-22T01:55:49;9.65;;;8.65;;
77701;SDS011;66868;42.708;23.404;2023-06-22T01:58:17;10.95;;;8.80;;
77701;SDS011;66868;42.708;23.404;2023-06-22T02:00:48;10.73;;;8.80;;
77701;SDS011;66868;42.708;23.404;2023-06-22T02:03:19;10.68;;;9.52;;
77701;SDS011;66868;42.708;23.404;2023-06-22T02:05:50;12.07;;;9.98;;
77701;SDS011;66868;42.708;23.404;2023-06-22T02:08:20;11.10;;;9.70;;
77701;SDS011;66868;42.708;23.404;2023-06-22T02:10:51;12.65;;;9.30;;
77701;SDS011;66868;42.708;23.404;2023-06-22T02:13:19;10.02;;;9.13;;
77701;SDS011;66868;42.708;23.404;2023-06-22T02:15:45;10.63;;;9.63;;
77701;SDS011;66868;42.708;23.404;2023-06-22T02:18:12;11.85;;;9.82;;
77701;SDS011;66868;42.708;23.404;2023-06-22T02:20:39;12.15;;;9.20;;
77701;SDS011;66868;42.708;23.404;2023-06-22T02:23:05;10.85;;;9.80;;
77701;SDS011;66868;42.708;23.404;2023-06-22T02:25:32;11.25;;;9.63;;
77701;SDS011;66868;42.708;23.404;2023-06-22T02:27:58;10.52;;;9.52;;
77701;SDS011;66868;42.708;23.404;2023-06-22T02:30:23;10.27;;;9.40;;
77701;SDS011;66868;42.708;23.404;2023-06-22T02:32:48;9.88;;;8.82;;
77701;SDS011;66868;42.708;23.404;2023-06-22T02:35:14;10.60;;;9.50;;
77701;SDS011;66868;42.708;23.404;2023-06-22T02:37:39;11.00;;;9.35;;
77701;SDS011;66868;42.708;23.404;2023-06-22T02:40:09;10.30;;;9.27;;
77701;SDS011;66868;42.708;23.404;2023-06-22T02:42:35;17.33;;;9.70;;
77701;SDS011;66868;42.708;23.404;2023-06-22T02:45:01;12.18;;;9.60;;
77701;SDS011;66868;42.708;23.404;2023-06-22T02:47:27;11.48;;;9.70;;
77701;SDS011;66868;42.708;23.404;2023-06-22T02:49:52;13.27;;;9.48;;
77701;SDS011;66868;42.708;23.404;2023-06-22T02:52:18;12.52;;;9.20;;
77701;SDS011;66868;42.708;23.404;2023-06-22T02:54:43;10.90;;;9.85;;
77701;SDS011;66868;42.708;23.404;2023-06-22T02:57:11;11.63;;;10.40;;
77701;SDS011;66868;42.708;23.404;2023-06-22T02:59:38;14.50;;;10.20;;
77701;SDS011;66868;42.708;23.404;2023-06-22T03:02:06;18.48;;;9.90;;
77701;SDS011;66868;42.708;23.404;2023-06-22T03:04:31;13.98;;;10.43;;
77701;SDS011;66868;42.708;23.404;2023-06-22T03:06:57;13.10;;;10.68;;
77701;SDS011;66868;42.708;23.404;2023-06-22T03:09:26;12.40;;;10.05;;
77701;SDS011;66868;42.708;23.404;2023-06-22T03:11:52;13.70;;;10.32;;
77701;SDS011;66868;42.708;23.404;2023-06-22T03:14:18;15.07;;;9.30;;
77701;SDS011;66868;42.708;23.404;2023-06-22T03:16:43;13.65;;;10.80;;
77701;SDS011;66868;42.708;23.404;2023-06-22T03:19:09;18.92;;;11.20;;
77701;SDS011;66868;42.708;23.404;2023-06-22T03:21:35;13.57;;;10.85;;
77701;SDS011;66868;42.708;23.404;2023-06-22T03:24:03;12.27;;;10.98;;
77701;SDS011;66868;42.708;23.404;2023-06-22T03:26:29;12.82;;;11.38;;
77701;SDS011;66868;42.708;23.404;2023-06-22T03:28:55;15.18;;;11.55;;
77701;SDS011;66868;42.708;23.404;2023-06-22T03:31:20;12.82;;;11.40;;
77701;SDS011;66868;42.708;23.404;2023-06-22T03:33:47;18.73;;;12.50;;
77701;SDS011;66868;42.708;23.404;2023-06-22T03:36:14;18.00;;;11.45;;
77701;SDS011;66868;42.708;23.404;2023-06-22T03:38:41;13.50;;;12.02;;
77701;SDS011;66868;42.708;23.404;2023-06-22T03:41:06;15.88;;;11.82;;
77701;SDS011;66868;42.708;23.404;2023-06-22T03:43:32;14.48;;;11.95;;
77701;SDS011;66868;42.708;23.404;2023-06-22T03:45:57;12.20;;;10.77;;
77701;SDS011;66868;42.708;23.404;2023-06-22T03:48:23;14.20;;;12.10;;
77701;SDS011;66868;42.708;23.404;2023-06-22T03:50:48;17.63;;;12.35;;
77701;SDS011;66868;42.708;23.404;2023-06-22T03:53:14;14.40;;;12.55;;
77701;SDS011;66868;42.708;23.404;2023-06-22T03:55:42;17.95;;;12.93;;
77701;SDS011;66868;42.708;23.404;2023-06-22T03:58:14;19.02;;;12.32;;
77701;SDS011;66868;42.708;23.404;2023-06-22T04:00:39;17.65;;;12.23;;
77701;SDS011;66868;42.708;23.404;2023-06-22T04:03:05;18.92;;;11.45;;
77701;SDS011;66868;42.708;23.404;2023-06-22T04:05:32;14.20;;;10.38;;
77701;SDS011;66868;42.708;23.404;2023-06-22T04:07:58;12.15;;;10.85;;
77701;SDS011;66868;42.708;23.404;2023-06-22T04:10:23;18.50;;;10.23;;
77701;SDS011;66868;42.708;23.404;2023-06-22T04:12:48;12.65;;;10.48;;
77701;SDS011;66868;42.708;23.404;2023-06-22T04:15:14;12.75;;;10.13;;
77701;SDS011;66868;42.708;23.404;2023-06-22T04:17:39;11.27;;;9.55;;
77701;SDS011;66868;42.708;23.404;2023-06-22T04:20:05;12.43;;;10.25;;
77701;SDS011;66868;42.708;23.404;2023-06-22T04:22:31;12.55;;;9.85;;
77701;SDS011;66868;42.708;23.404;2023-06-22T04:24:56;11.10;;;10.00;;
77701;SDS011;66868;42.708;23.404;2023-06-22T04:27:22;14.95;;;10.70;;
77701;SDS011;66868;42.708;23.404;2023-06-22T04:29:48;13.43;;;10.00;;
77701;SDS011;66868;42.708;23.404;2023-06-22T04:32:17;13.13;;;10.18;;
77701;SDS011;66868;42.708;23.404;2023-06-22T04:34:43;16.05;;;10.35;;
77701;SDS011;66868;42.708;23.404;2023-06-22T04:37:08;14.23;;;9.82;;
77701;SDS011;66868;42.708;23.404;2023-06-22T04:39:34;15.45;;;10.45;;
77701;SDS011;66868;42.708;23.404;2023-06-22T04:41:59;19.25;;;10.93;;
77701;SDS011;66868;42.708;23.404;2023-06-22T04:44:25;12.80;;;10.38;;
77701;SDS011;66868;42.708;23.404;2023-06-22T04:46:55;17.10;;;11.23;;
77701;SDS011;66868;42.708;23.404;2023-06-22T04:49:27;12.00;;;10.77;;
77701;SDS011;66868;42.708;23.404;2023-06-22T04:52:00;18.35;;;12.38;;
77701;SDS011;66868;42.708;23.404;2023-06-22T04:54:26;15.07;;;11.70;;
77701;SDS011;66868;42.708;23.404;2023-06-22T04:56:51;14.15;;;11.82;;
77701;SDS011;66868;42.708;23.404;2023-06-22T04:59:25;15.38;;;11.88;;
77701;SDS011;66868;42.708;23.404;2023-06-22T05:01:58;15.88;;;12.63;;
77701;SDS011;66868;42.708;23.404;2023-06-22T05:04:25;14.27;;;12.60;;
77701;SDS011;66868;42.708;23.404;2023-06-22T05:06:56;13.45;;;11.68;;
77701;SDS011;66868;42.708;23.404;2023-06-22T05:09:22;12.15;;;10.50;;
77701;SDS011;66868;42.708;23.404;2023-06-22T05:11:49;11.68;;;10.40;;
77701;SDS011;66868;42.708;23.404;2023-06-22T05:14:15;12.50;;;11.23;;
77701;SDS011;66868;42.708;23.404;2023-06-22T05:16:41;13.55;;;11.38;;
77701;SDS011;66868;42.708;23.404;2023-06-22T05:19:07;16.58;;;11.43;;
77701;SDS011;66868;42.708;23.404;2023-06-22T05:21:33;14.60;;;11.02;;
77701;SDS011;66868;42.708;23.404;2023-06-22T05:23:58;14.68;;;10.90;;
77701;SDS011;66868;42.708;23.404;2023-06-22T05:26:34;12.25;;;10.77;;
77701;SDS011;66868;42.708;23.404;2023-06-22T05:29:00;11.95;;;10.60;;
77701;SDS011;66868;42.708;23.404;2023-06-22T05:31:26;12.35;;;10.23;;
77701;SDS011;66868;42.708;23.404;2023-06-22T05:33:53;16.15;;;11.23;;
77701;SDS011;66868;42.708;23.404;2023-06-22T05:36:19;12.75;;;11.35;;
77701;SDS011;66868;42.708;23.404;2023-06-22T05:38:50;16.23;;;11.52;;
77701;SDS011;66868;42.708;23.404;2023-06-22T05:41:16;21.55;;;13.02;;
77701;SDS011;66868;42.708;23.404;2023-06-22T05:43:42;18.05;;;12.90;;
77701;SDS011;66868;42.708;23.404;2023-06-22T05:46:08;27.23;;;13.68;;
77701;SDS011;66868;42.708;23.404;2023-06-22T05:48:33;17.92;;;12.13;;
77701;SDS011;66868;42.708;23.404;2023-06-22T05:50:59;19.58;;;12.23;;
77701;SDS011;66868;42.708;23.404;2023-06-22T05:53:24;21.67;;;12.35;;
77701;SDS011;66868;42.708;23.404;2023-06-22T05:55:50;17.10;;;11.55;;
77701;SDS011;66868;42.708;23.404;2023-06-22T05:58:15;13.27;;;10.18;;
77701;SDS011;66868;42.708;23.404;2023-06-22T06:00:41;15.18;;;10.93;;
77701;SDS011;66868;42.708;23.404;2023-06-22T06:03:08;11.93;;;10.65;;
77701;SDS011;66868;42.708;23.404;2023-06-22T06:05:34;11.50;;;10.40;;
77701;SDS011;66868;42.708;23.404;2023-06-22T06:08:00;13.95;;;10.10;;
77701;SDS011;66868;42.708;23.404;2023-06-22T06:10:26;10.35;;;9.35;;
77701;SDS011;66868;42.708;23.404;2023-06-22T06:12:52;12.23;;;10.90;;
77701;SDS011;66868;42.708;23.404;2023-06-22T06:15:17;10.77;;;9.38;;
77701;SDS011;66868;42.708;23.404;2023-06-22T06:17:50;12.38;;;9.95;;
77701;SDS011;66868;42.708;23.404;2023-06-22T06:20:22;10.82;;;9.77;;
77701;SDS011;66868;42.708;23.404;2023-06-22T06:22:48;12.70;;;10.25;;
77701;SDS011;66868;42.708;23.404;2023-06-22T06:25:14;11.75;;;10.18;;
77701;SDS011;66868;42.708;23.404;2023-06-22T06:27:48;13.52;;;10.23;;
77701;SDS011;66868;42.708;23.404;2023-06-22T06:30:15;18.85;;;9.43;;
77701;SDS011;66868;42.708;23.404;2023-06-22T06:32:42;11.75;;;9.30;;
77701;SDS011;66868;42.708;23.404;2023-06-22T06:35:10;12.52;;;9.93;;
77701;SDS011;66868;42.708;23.404;2023-06-22T06:40:27;12.95;;;10.20;;
77701;SDS011;66868;42.708;23.404;2023-06-22T06:42:52;12.65;;;9.15;;
77701;SDS011;66868;42.708;23.404;2023-06-22T06:45:18;9.90;;;8.93;;
77701;SDS011;66868;42.708;23.404;2023-06-22T06:47:47;11.10;;;8.82;;
77701;SDS011;66868;42.708;23.404;2023-06-22T06:50:13;12.05;;;9.82;;
77701;SDS011;66868;42.708;23.404;2023-06-22T06:52:39;11.85;;;9.00;;
77701;SDS011;66868;42.708;23.404;2023-06-22T06:55:05;11.95;;;9.95;;
77701;SDS011;66868;42.708;23.404;2023-06-22T06:57:36;10.55;;;9.45;;
77701;SDS011;66868;42.708;23.404;2023-06-22T07:00:06;10.20;;;9.20;;
77701;SDS011;66868;42.708;23.404;2023-06-22T07:02:37;16.80;;;10.35;;
77701;SDS011;66868;42.708;23.404;2023-06-22T07:05:04;10.77;;;9.13;;
77701;SDS011;66868;42.708;23.404;2023-06-22T07:07:30;16.83;;;10.15;;
77701;SDS011;66868;42.708;23.404;2023-06-22T07:09:56;11.68;;;9.40;;
77701;SDS011;66868;42.708;23.404;2023-06-22T07:12:22;10.05;;;9.05;;
77701;SDS011;66868;42.708;23.404;2023-06-22T07:14:47;11.55;;;8.82;;
77701;SDS011;66868;42.708;23.404;2023-06-22T07:17:13;10.80;;;8.98;;
77701;SDS011;66868;42.708;23.404;2023-06-22T07:19:38;9.27;;;8.38;;
77701;SDS011;66868;42.708;23.404;2023-06-22T07:22:12;10.70;;;9.60;;
77701;SDS011;66868;42.708;23.404;2023-06-22T07:24:58;16.15;;;9.90;;
77701;SDS011;66868;42.708;23.404;2023-06-22T07:27:23;10.75;;;9.73;;
77701;SDS011;66868;42.708;23.404;2023-06-22T07:29:49;12.77;;;8.60;;
77701;SDS011;66868;42.708;23.404;2023-06-22T07:32:15;11.02;;;9.13;;
77701;SDS011;66868;42.708;23.404;2023-06-22T07:34:41;10.20;;;9.32;;
77701;SDS011;66868;42.708;23.404;2023-06-22T07:37:06;17.50;;;10.05;;
77701;SDS011;66868;42.708;23.404;2023-06-22T07:39:32;11.73;;;8.15;;
77701;SDS011;66868;42.708;23.404;2023-06-22T07:41:57;18.25;;;9.77;;
77701;SDS011;66868;42.708;23.404;2023-06-22T07:44:23;15.30;;;8.20;;
77701;SDS011;66868;42.708;23.404;2023-06-22T07:46:49;13.57;;;9.00;;
77701;SDS011;66868;42.708;23.404;2023-06-22T07:49:14;11.38;;;9.52;;
77701;SDS011;66868;42.708;23.404;2023-06-22T07:51:39;9.48;;;8.65;;
77701;SDS011;66868;42.708;23.404;2023-06-22T07:54:05;11.43;;;8.68;;
77701;SDS011;66868;42.708;23.404;2023-06-22T07:56:30;10.35;;;9.35;;
77701;SDS011;66868;42.708;23.404;2023-06-22T07:58:57;9.27;;;8.57;;
77701;SDS011;66868;42.708;23.404;2023-06-22T08:01:24;10.57;;;9.55;;
77701;SDS011;66868;42.708;23.404;2023-06-22T08:03:49;11.52;;;9.13;;
77701;SDS011;66868;42.708;23.404;2023-06-22T08:06:17;16.33;;;10.77;;
77701;SDS011;66868;42.708;23.404;2023-06-22T08:08:42;11.10;;;9.55;;
77701;SDS011;66868;42.708;23.404;2023-06-22T08:11:08;16.35;;;10.00;;
77701;SDS011;66868;42.708;23.404;2023-06-22T08:13:34;15.70;;;9.73;;
77701;SDS011;66868;42.708;23.404;2023-06-22T08:15:59;11.70;;;9.60;;
77701;SDS011;66868;42.708;23.404;2023-06-22T08:18:25;15.93;;;12.05;;
77701;SDS011;66868;42.708;23.404;2023-06-22T08:20:50;23.05;;;11.48;;
77701;SDS011;66868;42.708;23.404;2023-06-22T08:23:16;17.67;;;11.18;;
77701;SDS011;66868;42.708;23.404;2023-06-22T08:25:42;15.45;;;10.15;;
77701;SDS011;66868;42.708;23.404;2023-06-22T08:28:07;14.85;;;10.88;;
77701;SDS011;66868;42.708;23.404;2023-06-22T08:30:32;12.45;;;10.20;;
77701;SDS011;66868;42.708;23.404;2023-06-22T08:32:58;16.02;;;10.80;;
77701;SDS011;66868;42.708;23.404;2023-06-22T08:35:24;16.95;;;12.23;;
77701;SDS011;66868;42.708;23.404;2023-06-22T08:37:49;15.18;;;11.82;;
77701;SDS011;66868;42.708;23.404;2023-06-22T08:40:17;16.88;;;11.82;;
77701;SDS011;66868;42.708;23.404;2023-06-22T08:42:44;16.77;;;11.55;;
77701;SDS011;66868;42.708;23.404;2023-06-22T08:45:10;15.20;;;10.68;;
77701;SDS011;66868;42.708;23.404;2023-06-22T08:47:36;17.45;;;12.18;;
77701;SDS011;66868;42.708;23.404;2023-06-22T08:50:02;19.05;;;10.32;;
77701;SDS011;66868;42.708;23.404;2023-06-22T08:52:30;27.98;;;12.48;;
77701;SDS011;66868;42.708;23.404;2023-06-22T08:54:56;18.58;;;11.40;;
77701;SDS011;66868;42.708;23.404;2023-06-22T08:57:23;13.18;;;11.30;;
77701;SDS011;66868;42.708;23.404;2023-06-22T08:59:48;15.98;;;11.18;;
77701;SDS011;66868;42.708;23.404;2023-06-22T09:02:14;24.80;;;11.45;;
77701;SDS011;66868;42.708;23.404;2023-06-22T09:04:39;23.70;;;11.38;;
77701;SDS011;66868;42.708;23.404;2023-06-22T09:07:07;25.88;;;10.80;;
77701;SDS011;66868;42.708;23.404;2023-06-22T09:09:32;18.48;;;10.70;;
77701;SDS011;66868;42.708;23.404;2023-06-22T09:11:58;17.23;;;12.10;;
77701;SDS011;66868;42.708;23.404;2023-06-22T09:14:23;16.45;;;12.40;;
77701;SDS011;66868;42.708;23.404;2023-06-22T09:16:49;20.88;;;10.90;;
77701;SDS011;66868;42.708;23.404;2023-06-22T09:19:14;17.23;;;10.45;;
77701;SDS011;66868;42.708;23.404;2023-06-22T09:21:39;12.60;;;10.85;;
77701;SDS011;66868;42.708;23.404;2023-06-22T09:24:05;16.15;;;11.20;;
77701;SDS011;66868;42.708;23.404;2023-06-22T09:26:30;18.65;;;11.07;;
77701;SDS011;66868;42.708;23.404;2023-06-22T09:28:57;15.75;;;10.77;;
77701;SDS011;66868;42.708;23.404;2023-06-22T09:31:23;16.27;;;9.95;;
77701;SDS011;66868;42.708;23.404;2023-06-22T09:33:51;20.05;;;9.00;;
77701;SDS011;66868;42.708;23.404;2023-06-22T09:36:17;8.25;;;7.65;;
77701;SDS011;66868;42.708;23.404;2023-06-22T09:38:42;7.07;;;6.68;;
77701;SDS011;66868;42.708;23.404;2023-06-22T09:41:08;7.90;;;7.20;;
77701;SDS011;66868;42.708;23.404;2023-06-22T09:43:33;8.38;;;7.68;;
77701;SDS011;66868;42.708;23.404;2023-06-22T09:46:01;8.38;;;7.13;;
77701;SDS011;66868;42.708;23.404;2023-06-22T09:48:27;11.63;;;8.30;;
77701;SDS011;66868;42.708;23.404;2023-06-22T09:50:54;9.27;;;8.48;;
77701;SDS011;66868;42.708;23.404;2023-06-22T09:53:20;9.15;;;8.27;;
77701;SDS011;66868;42.708;23.404;2023-06-22T09:55:45;14.60;;;8.32;;
77701;SDS011;66868;42.708;23.404;2023-06-22T09:58:11;9.68;;;8.73;;
77701;SDS011;66868;42.708;23.404;2023-06-22T10:00:36;8.35;;;7.75;;
77701;SDS011;66868;42.708;23.404;2023-06-22T10:03:02;9.48;;;7.88;;
77701;SDS011;66868;42.708;23.404;2023-06-22T10:05:27;7.88;;;7.38;;
77701;SDS011;66868;42.708;23.404;2023-06-22T10:07:52;11.30;;;8.13;;
77701;SDS011;66868;42.708;23.404;2023-06-22T10:10:18;11.20;;;8.93;;
77701;SDS011;66868;42.708;23.404;2023-06-22T10:12:45;9.07;;;7.85;;
77701;SDS011;66868;42.708;23.404;2023-06-22T10:15:11;8.98;;;8.10;;
77701;SDS011;66868;42.708;23.404;2023-06-22T10:17:37;8.30;;;7.70;;
77701;SDS011;66868;42.708;23.404;2023-06-22T10:20:02;10.20;;;8.18;;
77701;SDS011;66868;42.708;23.404;2023-06-22T10:22:41;10.68;;;7.85;;
77701;SDS011;66868;42.708;23.404;2023-06-22T10:25:08;9.52;;;8.10;;
77701;SDS011;66868;42.708;23.404;2023-06-22T10:27:34;10.38;;;7.43;;
77701;SDS011;66868;42.708;23.404;2023-06-22T10:30:00;8.20;;;7.45;;
77701;SDS011;66868;42.708;23.404;2023-06-22T10:32:29;8.80;;;8.05;;
77701;SDS011;66868;42.708;23.404;2023-06-22T10:35:31;9.13;;;8.23;;
77701;SDS011;66868;42.708;23.404;2023-06-22T10:37:56;10.82;;;8.00;;
77701;SDS011;66868;42.708;23.404;2023-06-22T10:40:22;7.18;;;6.78;;
77701;SDS011;66868;42.708;23.404;2023-06-22T10:42:47;8.07;;;7.30;;
77701;SDS011;66868;42.708;23.404;2023-06-22T10:45:15;8.27;;;7.55;;
77701;SDS011;66868;42.708;23.404;2023-06-22T10:47:40;8.52;;;7.30;;
77701;SDS011;66868;42.708;23.404;2023-06-22T10:50:07;7.88;;;7.38;;
77701;SDS011;66868;42.708;23.404;2023-06-22T10:52:33;7.97;;;7.47;;
77701;SDS011;66868;42.708;23.404;2023-06-22T10:54:58;8.32;;;7.63;;
77701;SDS011;66868;42.708;23.404;2023-06-22T10:57:24;11.68;;;7.60;;
77701;SDS011;66868;42.708;23.404;2023-06-22T10:59:49;7.45;;;6.97;;
77701;SDS011;66868;42.708;23.404;2023-06-22T11:02:15;8.88;;;8.07;;
77701;SDS011;66868;42.708;23.404;2023-06-22T11:04:40;9.90;;;7.38;;
77701;SDS011;66868;42.708;23.404;2023-06-22T11:07:06;7.97;;;7.38;;
77701;SDS011;66868;42.708;23.404;2023-06-22T11:09:31;7.65;;;7.07;;
77701;SDS011;66868;42.708;23.404;2023-06-22T11:11:59;11.50;;;7.35;;
77701;SDS011;66868;42.708;23.404;2023-06-22T11:14:25;8.73;;;7.63;;
77701;SDS011;66868;42.708;23.404;2023-06-22T11:16:50;9.13;;;7.47;;
77701;SDS011;66868;42.708;23.404;2023-06-22T11:19:19;7.10;;;6.25;;
77701;SDS011;66868;42.708;23.404;2023-06-22T11:21:44;8.25;;;7.43;;
77701;SDS011;66868;42.708;23.404;2023-06-22T11:24:10;7.00;;;6.50;;
77701;SDS011;66868;42.708;23.404;2023-06-22T11:26:35;7.40;;;6.80;;
77701;SDS011;66868;42.708;23.404;2023-06-22T11:29:01;11.43;;;7.07;;
77701;SDS011;66868;42.708;23.404;2023-06-22T11:31:30;7.70;;;7.13;;
77701;SDS011;66868;42.708;23.404;2023-06-22T11:33:56;9.30;;;7.00;;
77701;SDS011;66868;42.708;23.404;2023-06-22T11:36:21;15.52;;;7.97;;
77701;SDS011;66868;42.708;23.404;2023-06-22T11:38:49;12.13;;;7.28;;
77701;SDS011;66868;42.708;23.404;2023-06-22T11:41:15;10.27;;;6.90;;
77701;SDS011;66868;42.708;23.404;2023-06-22T11:43:40;11.00;;;7.63;;
77701;SDS011;66868;42.708;23.404;2023-06-22T11:46:05;8.15;;;7.50;;
77701;SDS011;66868;42.708;23.404;2023-06-22T11:48:31;8.85;;;7.22;;
77701;SDS011;66868;42.708;23.404;2023-06-22T11:50:59;8.90;;;7.68;;
77701;SDS011;66868;42.708;23.404;2023-06-22T11:53:25;21.45;;;7.82;;
77701;SDS011;66868;42.708;23.404;2023-06-22T11:55:51;10.98;;;6.68;;
77701;SDS011;66868;42.708;23.404;2023-06-22T11:58:19;13.77;;;7.43;;
77701;SDS011;66868;42.708;23.404;2023-06-22T12:00:44;7.95;;;7.25;;
77701;SDS011;66868;42.708;23.404;2023-06-22T12:03:10;11.80;;;7.10;;
77701;SDS011;66868;42.708;23.404;2023-06-22T12:05:41;8.10;;;6.55;;
77701;SDS011;66868;42.708;23.404;2023-06-22T12:08:07;16.13;;;7.30;;
77701;SDS011;66868;42.708;23.404;2023-06-22T12:10:32;13.23;;;7.57;;
77701;SDS011;66868;42.708;23.404;2023-06-22T12:12:57;9.25;;;8.02;;
77701;SDS011;66868;42.708;23.404;2023-06-22T12:15:25;14.63;;;7.80;;
77701;SDS011;66868;42.708;23.404;2023-06-22T12:17:53;13.65;;;7.95;;
77701;SDS011;66868;42.708;23.404;2023-06-22T12:20:18;19.35;;;8.02;;
77701;SDS011;66868;42.708;23.404;2023-06-22T12:22:44;9.68;;;7.47;;
77701;SDS011;66868;42.708;23.404;2023-06-22T12:25:10;25.00;;;8.00;;
77701;SDS011;66868;42.708;23.404;2023-06-22T12:27:36;22.65;;;8.00;;
77701;SDS011;66868;42.708;23.404;2023-06-22T12:30:02;13.10;;;8.10;;
77701;SDS011;66868;42.708;23.404;2023-06-22T12:32:28;28.17;;;8.35;;
77701;SDS011;66868;42.708;23.404;2023-06-22T12:34:54;21.52;;;8.23;;
77701;SDS011;66868;42.708;23.404;2023-06-22T12:37:20;33.25;;;9.20;;
77701;SDS011;66868;42.708;23.404;2023-06-22T12:39:45;12.45;;;8.07;;
77701;SDS011;66868;42.708;23.404;2023-06-22T12:42:11;17.35;;;8.85;;
77701;SDS011;66868;42.708;23.404;2023-06-22T12:44:40;15.60;;;9.18;;
77701;SDS011;66868;42.708;23.404;2023-06-22T12:47:06;13.68;;;9.20;;
77701;SDS011;66868;42.708;23.404;2023-06-22T12:49:33;9.43;;;8.25;;
77701;SDS011;66868;42.708;23.404;2023-06-22T12:51:59;12.13;;;7.20;;
77701;SDS011;66868;42.708;23.404;2023-06-22T12:54:24;16.73;;;9.05;;
77701;SDS011;66868;42.708;23.404;2023-06-22T12:56:50;15.73;;;8.07;;
77701;SDS011;66868;42.708;23.404;2023-06-22T12:59:15;20.23;;;9.52;;
77701;SDS011;66868;42.708;23.404;2023-06-22T13:01:42;23.38;;;7.97;;
77701;SDS011;66868;42.708;23.404;2023-06-22T13:04:08;10.82;;;8.13;;
77701;SDS011;66868;42.708;23.404;2023-06-22T13:06:39;11.77;;;7.53;;
77701;SDS011;66868;42.708;23.404;2023-06-22T13:09:12;18.30;;;8.32;;
77701;SDS011;66868;42.708;23.404;2023-06-22T13:11:44;13.70;;;8.82;;
77701;SDS011;66868;42.708;23.404;2023-06-22T13:14:09;8.55;;;7.72;;
77701;SDS011;66868;42.708;23.404;2023-06-22T13:16:35;9.40;;;8.52;;
77701;SDS011;66868;42.708;23.404;2023-06-22T13:19:00;13.88;;;8.20;;
77701;SDS011;66868;42.708;23.404;2023-06-22T13:21:28;16.00;;;9.25;;
77701;SDS011;66868;42.708;23.404;2023-06-22T13:23:56;11.10;;;7.85;;
77701;SDS011;66868;42.708;23.404;2023-06-22T13:26:22;12.02;;;8.70;;
77701;SDS011;66868;42.708;23.404;2023-06-22T13:28:48;12.18;;;8.23;;
77701;SDS011;66868;42.708;23.404;2023-06-22T13:31:13;8.85;;;8.00;;
77701;SDS011;66868;42.708;23.404;2023-06-22T13:33:39;9.95;;;8.65;;
77701;SDS011;66868;42.708;23.404;2023-06-22T13:36:05;13.00;;;7.63;;
77701;SDS011;66868;42.708;23.404;2023-06-22T13:38:32;11.38;;;7.93;;
77701;SDS011;66868;42.708;23.404;2023-06-22T13:40:57;10.57;;;8.05;;
77701;SDS011;66868;42.708;23.404;2023-06-22T13:43:24;10.63;;;8.55;;
77701;SDS011;66868;42.708;23.404;2023-06-22T14:17:09;10.88;;;8.18;;
77701;SDS011;66868;42.708;23.404;2023-06-22T14:19:35;11.95;;;9.20;;
77701;SDS011;66868;42.708;23.404;2023-06-22T14:22:00;12.38;;;8.77;;
77701;SDS011;66868;42.708;23.404;2023-06-22T14:24:26;9.85;;;8.57;;
77701;SDS011;66868;42.708;23.404;2023-06-22T14:26:52;14.52;;;9.10;;
77701;SDS011;66868;42.708;23.404;2023-06-22T14:29:17;9.90;;;9.00;;
77701;SDS011;66868;42.708;23.404;2023-06-22T14:31:46;17.05;;;9.65;;
77701;SDS011;66868;42.708;23.404;2023-06-22T14:34:12;10.90;;;9.10;;
77701;SDS011;66868;42.708;23.404;2023-06-22T14:36:37;10.93;;;9.07;;
77701;SDS011;66868;42.708;23.404;2023-06-22T14:39:02;12.35;;;9.73;;
77701;SDS011;66868;42.708;23.404;2023-06-22T14:41:29;15.98;;;9.95;;
77701;SDS011;66868;42.708;23.404;2023-06-22T14:43:55;19.92;;;8.70;;
77701;SDS011;66868;42.708;23.404;2023-06-22T14:46:20;14.27;;;9.65;;
77701;SDS011;66868;42.708;23.404;2023-06-22T14:48:46;11.57;;;8.07;;
77701;SDS011;66868;42.708;23.404;2023-06-22T14:51:11;15.02;;;9.00;;
77701;SDS011;66868;42.708;23.404;2023-06-22T14:53:37;18.50;;;8.85;;
77701;SDS011;66868;42.708;23.404;2023-06-22T14:56:02;19.38;;;9.15;;
77701;SDS011;66868;42.708;23.404;2023-06-22T14:58:29;9.48;;;8.57;;
77701;SDS011;66868;42.708;23.404;2023-06-22T15:00:58;11.45;;;8.00;;
77701;SDS011;66868;42.708;23.404;2023-06-22T15:03:27;10.43;;;8.85;;